sensor_id;sensor_type;location;lat;lon;timestamp;P1;durP1;ratioP1;P2;durP2;ratioP2
78875;SDS011;68253;52.506;5.486;2023-07-31T00:00:54;2.42;;;0.40;;
78875;SDS011;68253;52.506;5.486;2023-07-31T00:03:20;0.30;;;0.20;;
78875;SDS011;68253;52.506;5.486;2023-07-31T00:05:46;1.30;;;0.30;;
78875;SDS011;68253;52.506;5.486;2023-07-31T00:08:13;1.55;;;0.38;;
78875;SDS011;68253;52.506;5.486;2023-07-31T00:10:39;1.45;;;0.32;;
78875;SDS011;68253;52.506;5.486;2023-07-31T00:13:05;1.48;;;0.43;;
78875;SDS011;68253;52.506;5.486;2023-07-31T00:15:31;1.30;;;0.30;;
78875;SDS011;68253;52.506;5.486;2023-07-31T00:17:57;2.03;;;0.30;;
78875;SDS011;68253;52.506;5.486;2023-07-31T00:20:23;1.13;;;0.32;;
78875;SDS011;68253;52.506;5.486;2023-07-31T00:22:49;1.58;;;0.57;;
78875;SDS011;68253;52.506;5.486;2023-07-31T00:25:16;4.03;;;0.40;;
78875;SDS011;68253;52.506;5.486;2023-07-31T00:27:42;0.95;;;0.30;;
78875;SDS011;68253;52.506;5.486;2023-07-31T00:30:11;2.22;;;0.40;;
78875;SDS011;68253;52.506;5.486;2023-07-31T00:32:37;2.20;;;0.40;;
78875;SDS011;68253;52.506;5.486;2023-07-31T00:35:03;2.25;;;0.50;;
78875;SDS011;68253;52.506;5.486;2023-07-31T00:37:30;2.35;;;0.55;;
78875;SDS011;68253;52.506;5.486;2023-07-31T00:39:56;2.50;;;0.55;;
78875;SDS011;68253;52.506;5.486;2023-07-31T00:42:22;2.92;;;0.52;;
78875;SDS011;68253;52.506;5.486;2023-07-31T00:44:49;4.30;;;0.60;;
78875;SDS011;68253;52.506;5.486;2023-07-31T00:47:16;4.82;;;0.77;;
78875;SDS011;68253;52.506;5.486;2023-07-31T00:49:42;4.10;;;0.70;;
78875;SDS011;68253;52.506;5.486;2023-07-31T00:52:08;4.28;;;0.80;;
78875;SDS011;68253;52.506;5.486;2023-07-31T00:54:35;4.85;;;0.82;;
78875;SDS011;68253;52.506;5.486;2023-07-31T00:57:02;4.60;;;0.68;;
78875;SDS011;68253;52.506;5.486;2023-07-31T00:59:28;6.05;;;1.00;;
78875;SDS011;68253;52.506;5.486;2023-07-31T01:01:54;8.40;;;1.33;;
78875;SDS011;68253;52.506;5.486;2023-07-31T01:04:21;6.82;;;1.30;;
78875;SDS011;68253;52.506;5.486;2023-07-31T01:10:02;7.00;;;1.30;;
78875;SDS011;68253;52.506;5.486;2023-07-31T01:12:36;7.22;;;1.30;;
78875;SDS011;68253;52.506;5.486;2023-07-31T01:15:08;8.15;;;1.52;;
78875;SDS011;68253;52.506;5.486;2023-07-31T01:17:38;9.02;;;1.60;;
78875;SDS011;68253;52.506;5.486;2023-07-31T01:20:26;10.60;;;2.15;;
78875;SDS011;68253;52.506;5.486;2023-07-31T01:28:25;9.13;;;1.70;;
78875;SDS011;68253;52.506;5.486;2023-07-31T01:31:09;8.07;;;1.70;;
78875;SDS011;68253;52.506;5.486;2023-07-31T01:33:40;9.50;;;2.03;;
78875;SDS011;68253;52.506;5.486;2023-07-31T01:36:06;7.55;;;1.50;;
78875;SDS011;68253;52.506;5.486;2023-07-31T01:38:33;9.60;;;1.63;;
78875;SDS011;68253;52.506;5.486;2023-07-31T01:40:59;7.65;;;1.60;;
78875;SDS011;68253;52.506;5.486;2023-07-31T01:43:25;9.20;;;1.80;;
78875;SDS011;68253;52.506;5.486;2023-07-31T01:45:51;8.82;;;1.63;;
78875;SDS011;68253;52.506;5.486;2023-07-31T01:48:17;6.43;;;1.42;;
78875;SDS011;68253;52.506;5.486;2023-07-31T01:50:43;6.53;;;1.50;;
78875;SDS011;68253;52.506;5.486;2023-07-31T01:53:10;12.10;;;2.22;;
78875;SDS011;68253;52.506;5.486;2023-07-31T01:55:37;8.63;;;1.80;;
78875;SDS011;68253;52.506;5.486;2023-07-31T01:58:03;8.02;;;1.65;;
78875;SDS011;68253;52.506;5.486;2023-07-31T02:00:30;9.98;;;1.90;;
78875;SDS011;68253;52.506;5.486;2023-07-31T02:02:56;8.70;;;1.83;;
78875;SDS011;68253;52.506;5.486;2023-07-31T02:05:22;11.15;;;2.28;;
78875;SDS011;68253;52.506;5.486;2023-07-31T02:07:48;10.82;;;2.03;;
78875;SDS011;68253;52.506;5.486;2023-07-31T02:10:15;10.63;;;2.20;;
78875;SDS011;68253;52.506;5.486;2023-07-31T02:12:41;7.97;;;1.85;;
78875;SDS011;68253;52.506;5.486;2023-07-31T02:15:08;12.35;;;2.10;;
78875;SDS011;68253;52.506;5.486;2023-07-31T02:17:35;9.40;;;1.85;;
78875;SDS011;68253;52.506;5.486;2023-07-31T02:20:01;8.13;;;1.90;;
78875;SDS011;68253;52.506;5.486;2023-07-31T02:22:28;9.43;;;1.90;;
78875;SDS011;68253;52.506;5.486;2023-07-31T02:24:55;8.32;;;1.70;;
78875;SDS011;68253;52.506;5.486;2023-07-31T02:27:22;8.10;;;2.10;;
78875;SDS011;68253;52.506;5.486;2023-07-31T02:29:52;10.23;;;2.10;;
78875;SDS011;68253;52.506;5.486;2023-07-31T02:32:20;10.55;;;2.10;;
78875;SDS011;68253;52.506;5.486;2023-07-31T02:34:46;9.65;;;1.77;;
78875;SDS011;68253;52.506;5.486;2023-07-31T02:37:12;11.48;;;2.20;;
78875;SDS011;68253;52.506;5.486;2023-07-31T02:39:38;10.25;;;2.35;;
78875;SDS011;68253;52.506;5.486;2023-07-31T02:42:05;16.23;;;3.30;;
78875;SDS011;68253;52.506;5.486;2023-07-31T02:44:31;14.85;;;3.38;;
78875;SDS011;68253;52.506;5.486;2023-07-31T02:46:57;15.15;;;3.10;;
78875;SDS011;68253;52.506;5.486;2023-07-31T02:49:23;12.95;;;3.00;;
78875;SDS011;68253;52.506;5.486;2023-07-31T02:51:49;13.73;;;3.33;;
78875;SDS011;68253;52.506;5.486;2023-07-31T02:54:15;13.82;;;2.90;;
78875;SDS011;68253;52.506;5.486;2023-07-31T02:56:41;16.60;;;3.42;;
78875;SDS011;68253;52.506;5.486;2023-07-31T02:59:08;11.73;;;2.88;;
78875;SDS011;68253;52.506;5.486;2023-07-31T03:01:34;12.45;;;2.92;;
78875;SDS011;68253;52.506;5.486;2023-07-31T03:04:00;11.50;;;3.10;;
78875;SDS011;68253;52.506;5.486;2023-07-31T03:06:26;14.50;;;3.08;;
78875;SDS011;68253;52.506;5.486;2023-07-31T03:08:52;14.48;;;3.45;;
78875;SDS011;68253;52.506;5.486;2023-07-31T03:11:18;14.80;;;3.03;;
78875;SDS011;68253;52.506;5.486;2023-07-31T03:13:44;12.07;;;3.17;;
78875;SDS011;68253;52.506;5.486;2023-07-31T03:16:11;12.20;;;3.08;;
78875;SDS011;68253;52.506;5.486;2023-07-31T03:18:37;16.38;;;3.08;;
78875;SDS011;68253;52.506;5.486;2023-07-31T03:21:03;14.80;;;3.08;;
78875;SDS011;68253;52.506;5.486;2023-07-31T03:23:30;14.98;;;3.40;;
78875;SDS011;68253;52.506;5.486;2023-07-31T03:26:00;14.20;;;3.30;;
78875;SDS011;68253;52.506;5.486;2023-07-31T03:28:29;14.13;;;3.55;;
78875;SDS011;68253;52.506;5.486;2023-07-31T03:30:55;17.60;;;3.63;;
78875;SDS011;68253;52.506;5.486;2023-07-31T03:33:21;15.80;;;3.35;;
78875;SDS011;68253;52.506;5.486;2023-07-31T03:35:48;14.82;;;3.30;;
78875;SDS011;68253;52.506;5.486;2023-07-31T03:38:15;15.68;;;3.75;;
78875;SDS011;68253;52.506;5.486;2023-07-31T03:40:41;15.02;;;3.25;;
78875;SDS011;68253;52.506;5.486;2023-07-31T03:43:07;15.50;;;3.63;;
78875;SDS011;68253;52.506;5.486;2023-07-31T03:45:33;15.48;;;3.10;;
78875;SDS011;68253;52.506;5.486;2023-07-31T03:48:00;13.90;;;3.30;;
78875;SDS011;68253;52.506;5.486;2023-07-31T03:50:26;15.98;;;2.97;;
78875;SDS011;68253;52.506;5.486;2023-07-31T03:52:52;13.20;;;3.35;;
78875;SDS011;68253;52.506;5.486;2023-07-31T03:55:18;16.90;;;4.03;;
78875;SDS011;68253;52.506;5.486;2023-07-31T03:57:44;14.30;;;2.65;;
78875;SDS011;68253;52.506;5.486;2023-07-31T04:00:11;13.05;;;2.97;;
78875;SDS011;68253;52.506;5.486;2023-07-31T04:02:40;12.98;;;3.20;;
78875;SDS011;68253;52.506;5.486;2023-07-31T04:05:07;16.73;;;3.63;;
78875;SDS011;68253;52.506;5.486;2023-07-31T04:07:33;14.05;;;3.00;;
78875;SDS011;68253;52.506;5.486;2023-07-31T04:09:59;13.48;;;3.28;;
78875;SDS011;68253;52.506;5.486;2023-07-31T04:12:25;13.63;;;3.13;;
78875;SDS011;68253;52.506;5.486;2023-07-31T04:14:52;13.38;;;3.30;;
78875;SDS011;68253;52.506;5.486;2023-07-31T04:17:18;15.98;;;3.78;;
78875;SDS011;68253;52.506;5.486;2023-07-31T04:19:44;12.90;;;3.33;;
78875;SDS011;68253;52.506;5.486;2023-07-31T04:22:10;13.05;;;2.80;;
78875;SDS011;68253;52.506;5.486;2023-07-31T04:24:36;13.40;;;3.20;;
78875;SDS011;68253;52.506;5.486;2023-07-31T04:27:02;14.50;;;3.35;;
78875;SDS011;68253;52.506;5.486;2023-07-31T04:29:29;13.13;;;2.90;;
78875;SDS011;68253;52.506;5.486;2023-07-31T04:31:55;16.33;;;3.75;;
78875;SDS011;68253;52.506;5.486;2023-07-31T04:34:21;17.15;;;3.08;;
78875;SDS011;68253;52.506;5.486;2023-07-31T04:36:47;13.52;;;3.30;;
78875;SDS011;68253;52.506;5.486;2023-07-31T04:39:13;14.82;;;3.35;;
78875;SDS011;68253;52.506;5.486;2023-07-31T04:41:39;16.38;;;3.20;;
78875;SDS011;68253;52.506;5.486;2023-07-31T04:44:05;13.60;;;3.50;;
78875;SDS011;68253;52.506;5.486;2023-07-31T04:46:31;14.52;;;3.17;;
78875;SDS011;68253;52.506;5.486;2023-07-31T04:48:57;13.20;;;2.92;;
78875;SDS011;68253;52.506;5.486;2023-07-31T04:51:24;16.90;;;3.95;;
78875;SDS011;68253;52.506;5.486;2023-07-31T04:53:50;15.68;;;3.00;;
78875;SDS011;68253;52.506;5.486;2023-07-31T04:56:16;11.93;;;3.03;;
78875;SDS011;68253;52.506;5.486;2023-07-31T04:58:43;15.25;;;3.50;;
78875;SDS011;68253;52.506;5.486;2023-07-31T05:01:09;17.27;;;3.50;;
78875;SDS011;68253;52.506;5.486;2023-07-31T05:03:35;13.27;;;3.17;;
78875;SDS011;68253;52.506;5.486;2023-07-31T05:06:01;14.80;;;2.90;;
78875;SDS011;68253;52.506;5.486;2023-07-31T05:08:27;17.52;;;3.85;;
78875;SDS011;68253;52.506;5.486;2023-07-31T05:10:53;13.65;;;2.70;;
78875;SDS011;68253;52.506;5.486;2023-07-31T05:13:19;14.95;;;3.70;;
78875;SDS011;68253;52.506;5.486;2023-07-31T05:15:45;15.57;;;3.55;;
78875;SDS011;68253;52.506;5.486;2023-07-31T05:18:11;14.02;;;3.30;;
78875;SDS011;68253;52.506;5.486;2023-07-31T05:20:38;15.85;;;2.92;;
78875;SDS011;68253;52.506;5.486;2023-07-31T05:23:04;13.52;;;3.03;;
78875;SDS011;68253;52.506;5.486;2023-07-31T05:25:30;15.15;;;3.55;;
78875;SDS011;68253;52.506;5.486;2023-07-31T05:27:56;14.15;;;2.83;;
78875;SDS011;68253;52.506;5.486;2023-07-31T05:30:22;16.30;;;4.18;;
78875;SDS011;68253;52.506;5.486;2023-07-31T05:32:48;16.73;;;3.10;;
78875;SDS011;68253;52.506;5.486;2023-07-31T05:35:14;13.13;;;2.92;;
78875;SDS011;68253;52.506;5.486;2023-07-31T05:37:40;12.57;;;2.47;;
78875;SDS011;68253;52.506;5.486;2023-07-31T05:40:07;12.00;;;3.00;;
78875;SDS011;68253;52.506;5.486;2023-07-31T05:42:33;11.70;;;2.65;;
78875;SDS011;68253;52.506;5.486;2023-07-31T05:45:00;10.55;;;2.15;;
78875;SDS011;68253;52.506;5.486;2023-07-31T05:47:26;10.18;;;2.22;;
78875;SDS011;68253;52.506;5.486;2023-07-31T05:49:52;10.20;;;2.42;;
78875;SDS011;68253;52.506;5.486;2023-07-31T05:52:19;9.95;;;2.47;;
78875;SDS011;68253;52.506;5.486;2023-07-31T05:54:45;9.52;;;2.53;;
78875;SDS011;68253;52.506;5.486;2023-07-31T05:57:11;9.70;;;2.20;;
78875;SDS011;68253;52.506;5.486;2023-07-31T05:59:37;8.23;;;1.75;;
78875;SDS011;68253;52.506;5.486;2023-07-31T06:02:04;7.93;;;1.75;;
78875;SDS011;68253;52.506;5.486;2023-07-31T06:04:30;7.13;;;1.70;;
78875;SDS011;68253;52.506;5.486;2023-07-31T06:06:56;6.30;;;1.48;;
78875;SDS011;68253;52.506;5.486;2023-07-31T06:09:22;5.70;;;1.10;;
78875;SDS011;68253;52.506;5.486;2023-07-31T06:11:48;4.90;;;1.10;;
78875;SDS011;68253;52.506;5.486;2023-07-31T06:14:14;5.50;;;1.30;;
78875;SDS011;68253;52.506;5.486;2023-07-31T06:16:41;5.70;;;1.33;;
78875;SDS011;68253;52.506;5.486;2023-07-31T06:19:07;6.60;;;1.20;;
78875;SDS011;68253;52.506;5.486;2023-07-31T06:21:33;5.65;;;1.10;;
78875;SDS011;68253;52.506;5.486;2023-07-31T06:23:59;6.13;;;1.17;;
78875;SDS011;68253;52.506;5.486;2023-07-31T06:26:25;3.53;;;1.20;;
78875;SDS011;68253;52.506;5.486;2023-07-31T06:28:51;5.28;;;0.95;;
78875;SDS011;68253;52.506;5.486;2023-07-31T06:31:17;3.75;;;0.90;;
78875;SDS011;68253;52.506;5.486;2023-07-31T06:33:51;3.10;;;0.90;;
78875;SDS011;68253;52.506;5.486;2023-07-31T06:36:18;4.57;;;1.10;;
78875;SDS011;68253;52.506;5.486;2023-07-31T06:38:44;4.15;;;0.98;;
78875;SDS011;68253;52.506;5.486;2023-07-31T06:41:10;4.40;;;1.00;;
78875;SDS011;68253;52.506;5.486;2023-07-31T06:43:36;3.97;;;0.73;;
78875;SDS011;68253;52.506;5.486;2023-07-31T06:46:06;3.47;;;1.00;;
78875;SDS011;68253;52.506;5.486;2023-07-31T06:48:33;4.32;;;1.10;;
78875;SDS011;68253;52.506;5.486;2023-07-31T06:51:00;4.03;;;1.00;;
78875;SDS011;68253;52.506;5.486;2023-07-31T06:53:26;3.33;;;0.80;;
78875;SDS011;68253;52.506;5.486;2023-07-31T06:55:53;5.25;;;1.20;;
78875;SDS011;68253;52.506;5.486;2023-07-31T06:58:20;3.60;;;0.90;;
78875;SDS011;68253;52.506;5.486;2023-07-31T07:00:46;4.07;;;0.75;;
78875;SDS011;68253;52.506;5.486;2023-07-31T07:03:14;3.95;;;1.00;;
78875;SDS011;68253;52.506;5.486;2023-07-31T07:05:41;3.58;;;0.70;;
78875;SDS011;68253;52.506;5.486;2023-07-31T07:08:07;3.28;;;0.80;;
78875;SDS011;68253;52.506;5.486;2023-07-31T07:10:34;3.90;;;0.80;;
78875;SDS011;68253;52.506;5.486;2023-07-31T07:13:00;3.75;;;0.70;;
78875;SDS011;68253;52.506;5.486;2023-07-31T07:15:26;3.80;;;0.70;;
78875;SDS011;68253;52.506;5.486;2023-07-31T07:17:52;2.72;;;0.65;;
78875;SDS011;68253;52.506;5.486;2023-07-31T07:20:18;2.70;;;0.70;;
78875;SDS011;68253;52.506;5.486;2023-07-31T07:22:45;3.85;;;0.65;;
78875;SDS011;68253;52.506;5.486;2023-07-31T07:25:11;2.45;;;0.70;;
78875;SDS011;68253;52.506;5.486;2023-07-31T07:27:37;2.75;;;0.60;;
78875;SDS011;68253;52.506;5.486;2023-07-31T07:30:04;3.92;;;0.60;;
78875;SDS011;68253;52.506;5.486;2023-07-31T07:32:30;3.08;;;0.70;;
78875;SDS011;68253;52.506;5.486;2023-07-31T07:34:56;3.92;;;0.60;;
78875;SDS011;68253;52.506;5.486;2023-07-31T07:37:23;2.28;;;0.60;;
78875;SDS011;68253;52.506;5.486;2023-07-31T07:39:49;1.60;;;0.40;;
78875;SDS011;68253;52.506;5.486;2023-07-31T07:42:15;1.45;;;0.40;;
78875;SDS011;68253;52.506;5.486;2023-07-31T07:44:41;1.35;;;0.40;;
78875;SDS011;68253;52.506;5.486;2023-07-31T07:47:07;2.70;;;0.57;;
78875;SDS011;68253;52.506;5.486;2023-07-31T07:49:34;1.52;;;0.50;;
78875;SDS011;68253;52.506;5.486;2023-07-31T07:52:01;1.40;;;0.40;;
78875;SDS011;68253;52.506;5.486;2023-07-31T07:54:27;2.47;;;0.45;;
78875;SDS011;68253;52.506;5.486;2023-07-31T07:56:53;1.23;;;0.30;;
78875;SDS011;68253;52.506;5.486;2023-07-31T07:59:20;0.98;;;0.30;;
78875;SDS011;68253;52.506;5.486;2023-07-31T08:01:46;2.63;;;0.52;;
78875;SDS011;68253;52.506;5.486;2023-07-31T08:04:12;0.98;;;0.30;;
78875;SDS011;68253;52.506;5.486;2023-07-31T08:06:38;0.95;;;0.40;;
78875;SDS011;68253;52.506;5.486;2023-07-31T08:09:05;1.60;;;0.40;;
78875;SDS011;68253;52.506;5.486;2023-07-31T08:11:32;1.50;;;0.47;;
78875;SDS011;68253;52.506;5.486;2023-07-31T08:13:58;1.13;;;0.30;;
78875;SDS011;68253;52.506;5.486;2023-07-31T08:16:24;1.40;;;0.38;;
78875;SDS011;68253;52.506;5.486;2023-07-31T08:18:50;1.45;;;0.45;;
78875;SDS011;68253;52.506;5.486;2023-07-31T08:21:17;0.43;;;0.20;;
78875;SDS011;68253;52.506;5.486;2023-07-31T08:23:43;1.83;;;0.50;;
78875;SDS011;68253;52.506;5.486;2023-07-31T08:26:15;2.72;;;0.38;;
78875;SDS011;68253;52.506;5.486;2023-07-31T08:28:42;0.60;;;0.30;;
78875;SDS011;68253;52.506;5.486;2023-07-31T08:31:09;1.13;;;0.20;;
78875;SDS011;68253;52.506;5.486;2023-07-31T08:33:36;1.55;;;0.40;;
78875;SDS011;68253;52.506;5.486;2023-07-31T08:36:03;1.17;;;0.30;;
78875;SDS011;68253;52.506;5.486;2023-07-31T08:38:29;0.98;;;0.30;;
78875;SDS011;68253;52.506;5.486;2023-07-31T08:40:58;0.70;;;0.30;;
78875;SDS011;68253;52.506;5.486;2023-07-31T08:43:27;1.20;;;0.40;;
78875;SDS011;68253;52.506;5.486;2023-07-31T08:45:54;0.82;;;0.20;;
78875;SDS011;68253;52.506;5.486;2023-07-31T08:48:21;0.45;;;0.20;;
78875;SDS011;68253;52.506;5.486;2023-07-31T08:50:48;1.58;;;0.45;;
78875;SDS011;68253;52.506;5.486;2023-07-31T08:53:15;0.80;;;0.20;;
78875;SDS011;68253;52.506;5.486;2023-07-31T08:55:42;1.10;;;0.28;;
78875;SDS011;68253;52.506;5.486;2023-07-31T08:58:09;1.58;;;0.20;;
78875;SDS011;68253;52.506;5.486;2023-07-31T09:00:38;0.22;;;0.10;;
78875;SDS011;68253;52.506;5.486;2023-07-31T09:03:09;0.30;;;0.20;;
78875;SDS011;68253;52.506;5.486;2023-07-31T09:05:45;0.85;;;0.20;;
78875;SDS011;68253;52.506;5.486;2023-07-31T09:08:12;0.32;;;0.10;;
78875;SDS011;68253;52.506;5.486;2023-07-31T09:13:12;0.20;;;0.20;;
78875;SDS011;68253;52.506;5.486;2023-07-31T09:15:38;0.20;;;0.10;;
78875;SDS011;68253;52.506;5.486;2023-07-31T09:18:08;0.52;;;0.13;;
78875;SDS011;68253;52.506;5.486;2023-07-31T09:20:34;1.55;;;0.10;;
78875;SDS011;68253;52.506;5.486;2023-07-31T09:23:07;0.95;;;0.20;;
78875;SDS011;68253;52.506;5.486;2023-07-31T09:25:35;0.47;;;0.20;;
78875;SDS011;68253;52.506;5.486;2023-07-31T09:28:06;1.30;;;0.10;;
78875;SDS011;68253;52.506;5.486;2023-07-31T09:33:29;0.20;;;0.10;;
78875;SDS011;68253;52.506;5.486;2023-07-31T09:35:58;0.15;;;0.10;;
78875;SDS011;68253;52.506;5.486;2023-07-31T09:38:25;0.93;;;0.20;;
78875;SDS011;68253;52.506;5.486;2023-07-31T09:40:51;0.50;;;0.10;;
78875;SDS011;68253;52.506;5.486;2023-07-31T09:43:18;0.10;;;0.10;;
78875;SDS011;68253;52.506;5.486;2023-07-31T09:45:46;1.10;;;0.28;;
78875;SDS011;68253;52.506;5.486;2023-07-31T09:48:13;0.30;;;0.10;;
78875;SDS011;68253;52.506;5.486;2023-07-31T09:50:44;0.15;;;0.10;;
78875;SDS011;68253;52.506;5.486;2023-07-31T09:53:11;0.25;;;0.10;;
78875;SDS011;68253;52.506;5.486;2023-07-31T09:55:38;1.90;;;0.50;;
78875;SDS011;68253;52.506;5.486;2023-07-31T09:58:06;2.47;;;0.28;;
78875;SDS011;68253;52.506;5.486;2023-07-31T10:00:33;1.58;;;0.30;;
78875;SDS011;68253;52.506;5.486;2023-07-31T10:03:00;2.00;;;0.40;;
78875;SDS011;68253;52.506;5.486;2023-07-31T10:05:38;3.70;;;0.63;;
78875;SDS011;68253;52.506;5.486;2023-07-31T10:08:09;5.40;;;0.70;;
78875;SDS011;68253;52.506;5.486;2023-07-31T10:10:36;4.70;;;0.73;;
78875;SDS011;68253;52.506;5.486;2023-07-31T10:13:03;4.60;;;0.65;;
78875;SDS011;68253;52.506;5.486;2023-07-31T10:15:31;3.30;;;0.70;;
78875;SDS011;68253;52.506;5.486;2023-07-31T10:17:58;5.38;;;0.80;;
78875;SDS011;68253;52.506;5.486;2023-07-31T10:20:24;7.20;;;1.23;;
78875;SDS011;68253;52.506;5.486;2023-07-31T10:22:53;5.43;;;0.77;;
78875;SDS011;68253;52.506;5.486;2023-07-31T10:25:20;8.02;;;0.95;;
78875;SDS011;68253;52.506;5.486;2023-07-31T10:27:47;7.97;;;1.05;;
78875;SDS011;68253;52.506;5.486;2023-07-31T10:30:15;7.18;;;1.00;;
78875;SDS011;68253;52.506;5.486;2023-07-31T10:32:44;6.70;;;1.00;;
78875;SDS011;68253;52.506;5.486;2023-07-31T10:35:11;4.93;;;0.88;;
78875;SDS011;68253;52.506;5.486;2023-07-31T10:37:41;7.22;;;1.10;;
78875;SDS011;68253;52.506;5.486;2023-07-31T10:48:02;6.80;;;1.05;;
78875;SDS011;68253;52.506;5.486;2023-07-31T10:50:29;6.90;;;1.30;;
78875;SDS011;68253;52.506;5.486;2023-07-31T10:52:58;7.97;;;1.17;;
78875;SDS011;68253;52.506;5.486;2023-07-31T10:55:27;6.47;;;1.17;;
78875;SDS011;68253;52.506;5.486;2023-07-31T10:58:04;8.25;;;1.40;;
78875;SDS011;68253;52.506;5.486;2023-07-31T11:00:32;8.88;;;1.20;;
78875;SDS011;68253;52.506;5.486;2023-07-31T11:03:03;10.27;;;1.35;;
78875;SDS011;68253;52.506;5.486;2023-07-31T11:08:28;9.23;;;1.40;;
78875;SDS011;68253;52.506;5.486;2023-07-31T11:13:30;10.10;;;1.67;;
78875;SDS011;68253;52.506;5.486;2023-07-31T11:15:58;10.90;;;1.60;;
78875;SDS011;68253;52.506;5.486;2023-07-31T11:18:31;9.82;;;1.45;;
78875;SDS011;68253;52.506;5.486;2023-07-31T11:20:57;9.30;;;1.45;;
78875;SDS011;68253;52.506;5.486;2023-07-31T11:23:23;7.78;;;1.30;;
78875;SDS011;68253;52.506;5.486;2023-07-31T11:25:50;9.20;;;1.08;;
78875;SDS011;68253;52.506;5.486;2023-07-31T11:28:17;6.55;;;1.15;;
78875;SDS011;68253;52.506;5.486;2023-07-31T11:30:44;8.85;;;1.60;;
78875;SDS011;68253;52.506;5.486;2023-07-31T11:33:11;8.27;;;1.52;;
78875;SDS011;68253;52.506;5.486;2023-07-31T11:35:43;9.73;;;1.30;;
78875;SDS011;68253;52.506;5.486;2023-07-31T11:38:27;5.50;;;1.10;;
78875;SDS011;68253;52.506;5.486;2023-07-31T11:40:55;8.90;;;1.40;;
78875;SDS011;68253;52.506;5.486;2023-07-31T11:43:23;9.00;;;1.38;;
78875;SDS011;68253;52.506;5.486;2023-07-31T11:45:51;7.85;;;1.50;;
78875;SDS011;68253;52.506;5.486;2023-07-31T11:48:21;7.15;;;1.17;;
78875;SDS011;68253;52.506;5.486;2023-07-31T11:50:49;5.57;;;1.17;;
78875;SDS011;68253;52.506;5.486;2023-07-31T11:53:27;8.75;;;1.20;;
78875;SDS011;68253;52.506;5.486;2023-07-31T11:56:07;5.10;;;1.00;;
78875;SDS011;68253;52.506;5.486;2023-07-31T11:58:37;7.38;;;1.25;;
78875;SDS011;68253;52.506;5.486;2023-07-31T12:01:04;7.63;;;1.60;;
78875;SDS011;68253;52.506;5.486;2023-07-31T12:03:32;8.85;;;1.45;;
78875;SDS011;68253;52.506;5.486;2023-07-31T12:05:59;8.65;;;1.50;;
78875;SDS011;68253;52.506;5.486;2023-07-31T12:08:25;7.18;;;1.05;;
78875;SDS011;68253;52.506;5.486;2023-07-31T12:10:52;7.80;;;1.30;;
78875;SDS011;68253;52.506;5.486;2023-07-31T12:13:20;8.15;;;1.50;;
78875;SDS011;68253;52.506;5.486;2023-07-31T12:15:55;7.95;;;1.30;;
78875;SDS011;68253;52.506;5.486;2023-07-31T12:18:24;7.68;;;1.20;;
78875;SDS011;68253;52.506;5.486;2023-07-31T12:23:23;8.23;;;1.15;;
78875;SDS011;68253;52.506;5.486;2023-07-31T12:26:03;4.40;;;0.93;;
78875;SDS011;68253;52.506;5.486;2023-07-31T12:28:30;10.80;;;1.48;;
78875;SDS011;68253;52.506;5.486;2023-07-31T12:30:59;5.07;;;1.10;;
78875;SDS011;68253;52.506;5.486;2023-07-31T12:33:36;7.82;;;1.15;;
78875;SDS011;68253;52.506;5.486;2023-07-31T12:36:06;7.70;;;1.35;;
78875;SDS011;68253;52.506;5.486;2023-07-31T12:38:35;10.77;;;1.67;;
78875;SDS011;68253;52.506;5.486;2023-07-31T12:41:01;6.53;;;1.20;;
78875;SDS011;68253;52.506;5.486;2023-07-31T12:43:27;7.53;;;1.60;;
78875;SDS011;68253;52.506;5.486;2023-07-31T12:45:54;7.05;;;1.20;;
78875;SDS011;68253;52.506;5.486;2023-07-31T12:48:21;8.05;;;1.20;;
78875;SDS011;68253;52.506;5.486;2023-07-31T12:50:48;6.15;;;1.08;;
78875;SDS011;68253;52.506;5.486;2023-07-31T12:53:15;7.85;;;1.33;;
78875;SDS011;68253;52.506;5.486;2023-07-31T12:55:41;6.15;;;1.25;;
78875;SDS011;68253;52.506;5.486;2023-07-31T12:58:07;5.68;;;1.08;;
78875;SDS011;68253;52.506;5.486;2023-07-31T13:00:34;8.75;;;1.40;;
78875;SDS011;68253;52.506;5.486;2023-07-31T13:03:00;7.47;;;1.20;;
78875;SDS011;68253;52.506;5.486;2023-07-31T13:05:27;7.30;;;1.30;;
78875;SDS011;68253;52.506;5.486;2023-07-31T13:07:53;6.30;;;1.30;;
78875;SDS011;68253;52.506;5.486;2023-07-31T13:10:20;7.68;;;1.40;;
78875;SDS011;68253;52.506;5.486;2023-07-31T13:12:47;7.75;;;1.45;;
78875;SDS011;68253;52.506;5.486;2023-07-31T13:15:13;5.70;;;1.30;;
78875;SDS011;68253;52.506;5.486;2023-07-31T13:17:40;7.40;;;1.20;;
78875;SDS011;68253;52.506;5.486;2023-07-31T13:20:06;6.80;;;1.35;;
78875;SDS011;68253;52.506;5.486;2023-07-31T13:22:33;6.45;;;1.50;;
78875;SDS011;68253;52.506;5.486;2023-07-31T13:24:59;8.40;;;1.52;;
78875;SDS011;68253;52.506;5.486;2023-07-31T13:27:25;6.40;;;1.20;;
78875;SDS011;68253;52.506;5.486;2023-07-31T13:29:51;9.40;;;1.38;;
78875;SDS011;68253;52.506;5.486;2023-07-31T13:32:18;7.55;;;1.38;;
78875;SDS011;68253;52.506;5.486;2023-07-31T13:34:45;7.25;;;1.50;;
78875;SDS011;68253;52.506;5.486;2023-07-31T13:37:12;6.40;;;1.25;;
78875;SDS011;68253;52.506;5.486;2023-07-31T13:39:39;8.65;;;1.55;;
78875;SDS011;68253;52.506;5.486;2023-07-31T13:42:06;6.00;;;1.23;;
78875;SDS011;68253;52.506;5.486;2023-07-31T13:44:36;7.10;;;1.15;;
78875;SDS011;68253;52.506;5.486;2023-07-31T13:47:03;6.35;;;1.00;;
78875;SDS011;68253;52.506;5.486;2023-07-31T13:49:29;8.40;;;1.30;;
78875;SDS011;68253;52.506;5.486;2023-07-31T13:51:56;7.40;;;1.33;;
78875;SDS011;68253;52.506;5.486;2023-07-31T13:54:23;6.90;;;1.20;;
78875;SDS011;68253;52.506;5.486;2023-07-31T13:56:49;7.90;;;1.30;;
78875;SDS011;68253;52.506;5.486;2023-07-31T13:59:16;8.15;;;1.42;;
78875;SDS011;68253;52.506;5.486;2023-07-31T14:01:45;6.72;;;1.20;;
78875;SDS011;68253;52.506;5.486;2023-07-31T14:04:11;6.63;;;1.17;;
78875;SDS011;68253;52.506;5.486;2023-07-31T14:06:38;5.70;;;1.00;;
78875;SDS011;68253;52.506;5.486;2023-07-31T14:09:04;6.32;;;0.95;;
78875;SDS011;68253;52.506;5.486;2023-07-31T14:11:31;3.67;;;0.80;;
78875;SDS011;68253;52.506;5.486;2023-07-31T14:13:57;5.53;;;1.23;;
78875;SDS011;68253;52.506;5.486;2023-07-31T14:16:23;5.13;;;1.00;;
78875;SDS011;68253;52.506;5.486;2023-07-31T14:18:49;5.85;;;1.00;;
78875;SDS011;68253;52.506;5.486;2023-07-31T14:21:15;4.80;;;1.08;;
78875;SDS011;68253;52.506;5.486;2023-07-31T14:23:42;6.38;;;1.10;;
78875;SDS011;68253;52.506;5.486;2023-07-31T14:26:08;5.20;;;1.15;;
78875;SDS011;68253;52.506;5.486;2023-07-31T14:28:34;6.20;;;1.08;;
78875;SDS011;68253;52.506;5.486;2023-07-31T14:31:00;5.28;;;1.00;;
78875;SDS011;68253;52.506;5.486;2023-07-31T14:33:26;7.32;;;1.23;;
78875;SDS011;68253;52.506;5.486;2023-07-31T14:35:52;6.88;;;1.50;;
78875;SDS011;68253;52.506;5.486;2023-07-31T14:38:19;7.03;;;1.20;;
78875;SDS011;68253;52.506;5.486;2023-07-31T14:40:46;5.93;;;1.38;;
78875;SDS011;68253;52.506;5.486;2023-07-31T14:43:12;6.10;;;1.17;;
78875;SDS011;68253;52.506;5.486;2023-07-31T14:45:38;4.93;;;0.98;;
78875;SDS011;68253;52.506;5.486;2023-07-31T14:48:04;6.43;;;1.08;;
78875;SDS011;68253;52.506;5.486;2023-07-31T14:50:30;3.17;;;0.63;;
78875;SDS011;68253;52.506;5.486;2023-07-31T14:52:56;4.70;;;1.00;;
78875;SDS011;68253;52.506;5.486;2023-07-31T14:55:23;4.22;;;0.88;;
78875;SDS011;68253;52.506;5.486;2023-07-31T14:57:49;3.47;;;0.95;;
78875;SDS011;68253;52.506;5.486;2023-07-31T15:00:15;4.40;;;0.80;;
78875;SDS011;68253;52.506;5.486;2023-07-31T15:02:41;4.53;;;0.75;;
78875;SDS011;68253;52.506;5.486;2023-07-31T15:05:07;4.88;;;0.75;;
78875;SDS011;68253;52.506;5.486;2023-07-31T15:07:34;4.63;;;0.70;;
78875;SDS011;68253;52.506;5.486;2023-07-31T15:10:01;4.80;;;0.65;;
78875;SDS011;68253;52.506;5.486;2023-07-31T15:12:28;3.22;;;0.70;;